»·PEaware :: N27JP KSNA-KCRQ

N27JP :: KSNA-KCRQ

FLIGHT INFORMATION

Flight Status: Arrived
Operator: Privately registered:
United States
More flights under this callsign
Pilot: Weston J. (31543)
Aircraft: CESSNA 172 SKYHAWK
(C172)
More flights by this aircraft type
Origin: KSNA John Wayne-Orange Co
United States
Destination: KCRQ McClellan-Palomar
United States
More flights between these airports :: More routes between these airports
Route: V23 OCN
File this flight plan on PilotEdge
Remarks: Practice for the I-2
Altitude:
(Current/Filed)
5,000ft
Speed:
(Current/Filed)
110kts
Departed: 29-Nov-20 02:15 PM
Arrived: 29-Nov-20 02:58 PM
Distance/Time
Traveled:
44nm/0:42
Distance/Time
To Go:
Arrived

Flight Plot

Page will automatically refresh every two minutes.


Map Options




Map Legend


Flown Route
Filed Route
Departure Airport
Arrival Airport
Navaid (VOR, NDB)
Fix

Horizontal Profiles

Position Reports

Time Latitude Longitude Heading Altitude Ground
Speed
29-Nov-20 13:46 33.673125 -117.873060 253 54ft 0kts
29-Nov-20 13:47 33.673125 -117.873060 253 54ft 0kts
29-Nov-20 13:48 33.673125 -117.873060 253 54ft 0kts
29-Nov-20 13:49 33.673125 -117.873060 253 54ft 0kts
29-Nov-20 13:50 33.673125 -117.873060 253 54ft 0kts
29-Nov-20 13:51 33.673125 -117.873060 253 54ft 0kts
29-Nov-20 13:52 33.673125 -117.873060 253 54ft 0kts
29-Nov-20 13:53 33.673125 -117.873060 253 54ft 0kts
29-Nov-20 13:54 33.673125 -117.873060 253 54ft 0kts
29-Nov-20 13:55 33.673125 -117.873060 253 54ft 0kts
29-Nov-20 13:56 33.673125 -117.873060 253 54ft 0kts
29-Nov-20 13:57 33.673125 -117.873060 253 54ft 0kts
29-Nov-20 13:58 33.673125 -117.873060 253 54ft 0kts
29-Nov-20 13:59 33.673125 -117.873060 253 54ft 0kts
29-Nov-20 14:00 33.673125 -117.873060 253 54ft 0kts
29-Nov-20 14:01 33.673125 -117.873060 253 54ft 0kts
29-Nov-20 14:02 33.673125 -117.873060 253 54ft 0kts
29-Nov-20 14:03 33.673125 -117.873060 253 54ft 0kts
29-Nov-20 14:04 33.673125 -117.873060 253 54ft 0kts
29-Nov-20 14:05 33.673125 -117.873060 253 54ft 0kts
29-Nov-20 14:06 33.673125 -117.873060 253 54ft 0kts
29-Nov-20 14:07 33.673125 -117.873060 253 54ft 0kts
29-Nov-20 14:08 33.673125 -117.873060 253 54ft 0kts
29-Nov-20 14:09 33.673079 -117.873102 189 54ft 6kts
29-Nov-20 14:10 33.674257 -117.871255 27 54ft 14kts
29-Nov-20 14:11 33.678871 -117.868313 28 49ft 20kts
29-Nov-20 14:12 33.681196 -117.866408 118 43ft 0kts
29-Nov-20 14:13 33.681196 -117.866408 118 43ft 0kts
29-Nov-20 14:14 33.679631 -117.866366 206 46ft 45kts
29-Nov-20 14:15 33.658659 -117.876181 188 467ft 93kts
29-Nov-20 14:16 33.631199 -117.880038 186 943ft 101kts
29-Nov-20 14:17 33.602649 -117.884687 186 1439ft 104kts
29-Nov-20 14:18 33.573807 -117.889630 187 1941ft 104kts
29-Nov-20 14:19 33.545042 -117.894284 187 2442ft 103kts
29-Nov-20 14:20 33.516670 -117.898614 187 2941ft 102kts
29-Nov-20 14:21 33.498458 -117.878917 103 3443ft 98kts
29-Nov-20 14:22 33.492361 -117.847188 101 3942ft 97kts
29-Nov-20 14:23 33.486166 -117.816049 101 4443ft 95kts
29-Nov-20 14:24 33.480112 -117.785345 102 4914ft 97kts
29-Nov-20 14:25 33.473273 -117.750126 102 4995ft 116kts
29-Nov-20 14:26 33.465882 -117.712354 102 4997ft 115kts
29-Nov-20 14:27 33.458588 -117.675101 102 5000ft 115kts
29-Nov-20 14:28 33.441421 -117.643558 145 4993ft 116kts
29-Nov-20 14:29 33.415778 -117.620238 130 4973ft 116kts
29-Nov-20 14:30 33.392798 -117.593042 137 4970ft 116kts
29-Nov-20 14:31 33.369529 -117.566357 135 4970ft 115kts
29-Nov-20 14:32 33.346313 -117.539665 134 4970ft 115kts
29-Nov-20 14:33 33.323203 -117.512994 135 4970ft 115kts
29-Nov-20 14:34 33.300083 -117.486292 135 4970ft 115kts
29-Nov-20 14:35 33.277036 -117.459698 135 4970ft 115kts
29-Nov-20 14:36 33.253998 -117.433127 134 4969ft 115kts
29-Nov-20 14:38 33.233305 -117.404641 106 4969ft 114kts
29-Nov-20 14:39 33.230054 -117.367127 92 4971ft 114kts
29-Nov-20 14:40 33.228465 -117.329392 92 4984ft 113kts
29-Nov-20 14:41 33.226926 -117.291872 92 4989ft 114kts
29-Nov-20 14:42 33.225417 -117.253977 92 4987ft 114kts
29-Nov-20 14:43 33.223921 -117.216182 92 4987ft 114kts
29-Nov-20 14:44 33.222466 -117.178632 92 4998ft 113kts
29-Nov-20 14:45 33.221092 -117.140943 92 4999ft 113kts
29-Nov-20 14:46 33.219697 -117.103399 92 4998ft 113kts
29-Nov-20 14:47 33.218320 -117.065870 92 4996ft 113kts
29-Nov-20 14:48 33.216935 -117.028517 92 5001ft 112kts
29-Nov-20 14:49 33.196400 -117.016199 213 4713ft 120kts
29-Nov-20 14:50 33.172624 -117.043387 226 4131ft 117kts
29-Nov-20 14:51 33.159429 -117.076445 267 3696ft 117kts
29-Nov-20 14:52 33.154975 -117.115114 257 3126ft 120kts
29-Nov-20 14:53 33.148709 -117.154704 259 2432ft 121kts
29-Nov-20 14:54 33.142304 -117.193601 260 1748ft 117kts
29-Nov-20 14:54 33.137417 -117.223511 260 1218ft 90kts
29-Nov-20 14:56 33.132989 -117.250243 259 754ft 66kts
29-Nov-20 14:56 33.130140 -117.268424 261 455ft 66kts
29-Nov-20 14:57 33.127606 -117.279613 170 331ft 0kts
29-Nov-20 14:58 33.127606 -117.279613 170 331ft 0kts
29-Nov-20 14:59 33.127606 -117.279613 170 331ft 0kts
29-Nov-20 15:00 33.126944 -117.279464 177 330ft 0kts

Navigation Log

Ident Type
Flight plan parsing failed, navigation log unavailable